Time;durP1;ratioP1;P1;durP2;ratioP2;P2;SDS_P1;SDS_P2;PMS_P1;PMS_P2;Temp;Humidity;BMP_temperature;BMP_pressure;BME280_temperature;BME280_humidity;BME280_pressure;Samples;Min_cycle;Max_cycle;Signal;HPM_P1;HPM_P2
2022/08/31 00:05:54;;;;;;;1.92;1.20;;;15.20;99.90;;;;;;4998416;28;20457;-85
2022/08/31 00:08:19;;;;;;;1.83;1.05;;;15.20;99.90;;;;;;5013348;28;20052;-82
2022/08/31 00:10:46;;;;;;;1.35;1.25;;;15.20;99.90;;;;;;5035062;28;20049;-85
2022/08/31 00:13:13;;;;;;;2.00;1.20;;;15.20;99.90;;;;;;5032804;28;20065;-85
2022/08/31 00:15:40;;;;;;;1.17;0.95;;;15.10;99.90;;;;;;4998585;28;20120;-85
2022/08/31 00:18:06;;;;;;;1.85;1.15;;;15.20;99.90;;;;;;5009463;28;20034;-85
2022/08/31 00:20:32;;;;;;;2.00;0.90;;;15.10;99.90;;;;;;5032267;28;20045;-86
2022/08/31 00:22:58;;;;;;;2.05;1.08;;;15.10;99.90;;;;;;4994325;28;20128;-85
2022/08/31 00:25:25;;;;;;;2.83;1.10;;;15.00;99.90;;;;;;5017506;28;20073;-85
2022/08/31 00:27:50;;;;;;;2.35;1.10;;;15.00;99.90;;;;;;4996467;28;20071;-84
2022/08/31 00:30:17;;;;;;;1.20;1.10;;;15.00;99.90;;;;;;5005955;28;20101;-86
2022/08/31 00:32:42;;;;;;;5.63;1.10;;;15.00;99.90;;;;;;5000227;28;20085;-85
2022/08/31 00:35:08;;;;;;;1.30;0.82;;;15.00;99.90;;;;;;5025217;28;20508;-85
2022/08/31 00:37:34;;;;;;;2.08;1.20;;;15.00;99.90;;;;;;5011050;28;20045;-84
2022/08/31 00:40:00;;;;;;;1.27;1.08;;;15.00;99.90;;;;;;5002539;28;20033;-85
2022/08/31 00:42:26;;;;;;;1.45;0.98;;;15.00;99.90;;;;;;4994792;28;20046;-86
2022/08/31 00:44:52;;;;;;;2.88;1.02;;;15.00;99.90;;;;;;5022404;28;20060;-85
2022/08/31 00:47:17;;;;;;;1.90;1.10;;;14.90;99.90;;;;;;4987284;28;20034;-85
2022/08/31 00:49:48;;;;;;;2.42;1.15;;;15.00;99.90;;;;;;5010470;28;20064;-85
2022/08/31 00:52:33;;;;;;;1.95;0.95;;;14.90;99.90;;;;;;5005320;28;20397;-85
2022/08/31 00:55:04;;;;;;;2.78;0.98;;;14.90;99.90;;;;;;5020549;28;20072;-85
2022/08/31 00:57:35;;;;;;;1.90;0.95;;;14.90;99.90;;;;;;4996469;28;20092;-85
2022/08/31 01:00:06;;;;;;;0.95;0.80;;;14.90;99.90;;;;;;5009479;28;20371;-86
2022/08/31 01:02:33;;;;;;;1.13;0.80;;;14.80;99.90;;;;;;4999233;28;20034;-85
2022/08/31 01:04:59;;;;;;;1.55;0.90;;;14.80;99.90;;;;;;5013957;28;20045;-86
2022/08/31 01:07:25;;;;;;;1.02;1.00;;;14.70;99.90;;;;;;4998391;28;20041;-85
2022/08/31 01:09:53;;;;;;;2.78;1.08;;;14.70;99.90;;;;;;5000726;28;20049;-85
2022/08/31 01:12:19;;;;;;;1.55;0.70;;;14.60;99.90;;;;;;5016199;28;20040;-85
2022/08/31 01:14:45;;;;;;;3.67;0.95;;;14.60;99.90;;;;;;5027184;28;20037;-85
2022/08/31 01:17:11;;;;;;;1.25;0.80;;;14.50;99.90;;;;;;5003057;28;20093;-83
2022/08/31 01:19:36;;;;;;;1.50;0.90;;;14.40;99.90;;;;;;4992007;28;20570;-85
2022/08/31 01:22:21;;;;;;;1.38;0.90;;;14.40;99.90;;;;;;4999681;28;20449;-85
2022/08/31 01:24:48;;;;;;;3.20;0.90;;;14.30;99.90;;;;;;5009312;28;20125;-85
2022/08/31 01:27:16;;;;;;;2.42;1.05;;;14.30;99.90;;;;;;5013084;28;20120;-86
2022/08/31 01:29:42;;;;;;;1.20;1.00;;;14.20;99.90;;;;;;5009781;28;20095;-86
2022/08/31 01:32:08;;;;;;;2.45;0.77;;;14.20;99.90;;;;;;4997573;28;20033;-86
2022/08/31 01:34:37;;;;;;;0.70;0.70;;;14.20;99.90;;;;;;5010611;28;20096;-86
2022/08/31 01:37:03;;;;;;;1.15;0.60;;;14.10;99.90;;;;;;4993009;28;20033;-86
2022/08/31 01:39:29;;;;;;;0.77;0.68;;;14.10;99.90;;;;;;4997346;28;20041;-86
2022/08/31 01:41:54;;;;;;;1.08;0.55;;;14.00;99.90;;;;;;5015991;28;20041;-83
2022/08/31 01:44:23;;;;;;;1.23;0.80;;;13.90;99.90;;;;;;5016791;28;20473;-86
2022/08/31 01:46:48;;;;;;;0.60;0.60;;;13.90;99.90;;;;;;5012274;28;20041;-85
2022/08/31 01:49:18;;;;;;;0.70;0.70;;;13.90;99.90;;;;;;4988671;28;20548;-86
2022/08/31 01:51:45;;;;;;;2.35;0.93;;;13.80;99.90;;;;;;4999448;28;20421;-86
2022/08/31 01:54:11;;;;;;;1.50;0.75;;;13.80;99.90;;;;;;5022555;28;20180;-85
2022/08/31 01:56:43;;;;;;;1.35;0.60;;;13.80;99.90;;;;;;5017765;28;20120;-86
2022/08/31 01:59:11;;;;;;;0.95;0.60;;;13.70;99.90;;;;;;5018060;28;20489;-86
2022/08/31 02:01:40;;;;;;;0.63;0.63;;;13.70;99.90;;;;;;5004751;28;20140;-84
2022/08/31 02:04:08;;;;;;;0.80;0.80;;;13.60;99.90;;;;;;5047183;28;20067;-84
2022/08/31 02:06:34;;;;;;;0.93;0.75;;;13.60;99.90;;;;;;5019326;28;20562;-86
2022/08/31 02:09:01;;;;;;;1.05;0.80;;;13.60;99.90;;;;;;5029811;28;20064;-86
2022/08/31 02:11:27;;;;;;;1.15;0.70;;;13.60;99.90;;;;;;4996765;28;20041;-86
2022/08/31 02:13:53;;;;;;;1.08;0.70;;;13.50;99.90;;;;;;5012168;28;20048;-85
2022/08/31 02:16:22;;;;;;;1.15;0.70;;;13.50;99.90;;;;;;5009797;28;20033;-85
2022/08/31 02:18:48;;;;;;;0.88;0.70;;;13.40;99.90;;;;;;4991692;28;20560;-85
2022/08/31 02:21:14;;;;;;;1.10;0.85;;;13.30;99.90;;;;;;5025426;28;20482;-86
2022/08/31 02:23:43;;;;;;;2.17;0.63;;;13.30;99.90;;;;;;5012272;28;20060;-85
2022/08/31 02:26:10;;;;;;;2.63;0.52;;;13.30;99.90;;;;;;5006135;28;20039;-86
2022/08/31 02:28:37;;;;;;;1.30;0.80;;;13.20;99.90;;;;;;5014254;28;20038;-85
2022/08/31 02:31:03;;;;;;;0.65;0.60;;;13.20;99.90;;;;;;5009836;28;20029;-84
2022/08/31 02:33:29;;;;;;;0.60;0.57;;;13.10;99.90;;;;;;5028220;28;20041;-83
2022/08/31 02:35:55;;;;;;;1.13;0.60;;;13.10;99.90;;;;;;5027429;28;20077;-84
2022/08/31 02:38:21;;;;;;;0.90;0.70;;;13.00;99.90;;;;;;5008699;28;20046;-85
2022/08/31 02:40:48;;;;;;;0.82;0.73;;;13.00;99.90;;;;;;5034022;28;20057;-85
2022/08/31 02:43:15;;;;;;;0.65;0.65;;;13.00;99.90;;;;;;5017371;28;20041;-85
2022/08/31 02:45:40;;;;;;;2.15;0.70;;;13.00;99.90;;;;;;5016528;28;20049;-86
2022/08/31 02:48:11;;;;;;;1.00;0.70;;;12.90;99.90;;;;;;5035071;28;20049;-86
2022/08/31 02:50:47;;;;;;;1.48;0.63;;;12.90;99.90;;;;;;4988929;28;20054;-86
2022/08/31 02:53:15;;;;;;;1.58;0.60;;;12.90;99.90;;;;;;5016831;28;20714;-85
2022/08/31 02:55:41;;;;;;;0.85;0.60;;;12.90;99.90;;;;;;4995163;28;20113;-85
2022/08/31 02:58:08;;;;;;;2.28;0.63;;;12.80;99.90;;;;;;5000737;28;20095;-85
2022/08/31 03:00:37;;;;;;;1.00;0.73;;;12.80;99.90;;;;;;5014405;28;20363;-85
2022/08/31 03:03:04;;;;;;;0.88;0.80;;;12.80;99.90;;;;;;4993269;28;20120;-85
2022/08/31 03:05:30;;;;;;;0.80;0.60;;;12.80;99.90;;;;;;5015586;28;20050;-85
2022/08/31 03:07:56;;;;;;;0.77;0.65;;;12.80;99.90;;;;;;5014133;28;20437;-86
2022/08/31 03:10:28;;;;;;;0.60;0.60;;;12.70;99.90;;;;;;4996987;28;20052;-85
2022/08/31 03:12:54;;;;;;;1.05;0.50;;;12.70;99.90;;;;;;5002036;28;20067;-85
2022/08/31 03:15:22;;;;;;;4.38;1.58;;;12.70;99.90;;;;;;5011027;28;20426;-85
2022/08/31 03:17:51;;;;;;;2.22;0.68;;;12.60;99.90;;;;;;5010397;28;20044;-86
2022/08/31 03:20:19;;;;;;;0.57;0.57;;;12.60;99.90;;;;;;5048489;28;20108;-83
2022/08/31 03:22:45;;;;;;;1.98;0.73;;;12.60;99.90;;;;;;5040836;28;20079;-84
2022/08/31 03:25:10;;;;;;;0.77;0.50;;;12.60;99.90;;;;;;5038017;28;20065;-85
2022/08/31 03:27:36;;;;;;;1.10;0.73;;;12.60;99.90;;;;;;4993494;28;20073;-85
2022/08/31 03:30:09;;;;;;;1.40;0.80;;;12.60;99.90;;;;;;5001027;28;20041;-85
2022/08/31 03:32:35;;;;;;;1.10;0.70;;;12.60;99.90;;;;;;5000109;28;20049;-83
2022/08/31 03:35:01;;;;;;;1.05;0.70;;;12.60;99.90;;;;;;4989812;28;20033;-85
2022/08/31 03:37:30;;;;;;;1.13;0.82;;;12.60;99.90;;;;;;4999611;28;20037;-85
2022/08/31 03:39:56;;;;;;;1.23;0.63;;;12.60;99.90;;;;;;4987190;28;20100;-84
2022/08/31 03:42:23;;;;;;;2.63;0.90;;;12.50;99.90;;;;;;5015204;28;20060;-85
2022/08/31 03:44:50;;;;;;;1.20;0.90;;;12.50;99.90;;;;;;5008448;28;20042;-86
2022/08/31 03:47:18;;;;;;;0.80;0.70;;;12.40;99.90;;;;;;5028045;28;20042;-86
2022/08/31 03:49:44;;;;;;;1.55;0.70;;;12.40;99.90;;;;;;5023780;28;20087;-85
2022/08/31 03:52:10;;;;;;;0.80;0.70;;;12.40;99.90;;;;;;5030229;28;20049;-84
2022/08/31 03:54:36;;;;;;;1.60;0.70;;;12.40;99.90;;;;;;5011982;28;20033;-85
2022/08/31 03:57:04;;;;;;;0.95;0.60;;;12.40;99.90;;;;;;5006743;28;20042;-85
2022/08/31 03:59:30;;;;;;;1.00;0.73;;;12.30;99.90;;;;;;5000143;28;20117;-85
2022/08/31 04:01:56;;;;;;;0.65;0.63;;;12.30;99.90;;;;;;5017639;28;20057;-85
2022/08/31 04:04:22;;;;;;;1.13;0.93;;;12.30;99.90;;;;;;5016456;28;20041;-84
2022/08/31 04:06:50;;;;;;;2.13;0.90;;;12.20;99.90;;;;;;5020062;28;20453;-85
2022/08/31 04:09:16;;;;;;;1.60;0.80;;;12.20;99.90;;;;;;5001499;28;20041;-85
2022/08/31 04:11:43;;;;;;;1.48;0.93;;;12.20;99.90;;;;;;5015638;28;20053;-82
2022/08/31 04:14:10;;;;;;;1.10;1.00;;;12.20;99.90;;;;;;5053947;28;20337;-82
2022/08/31 04:16:38;;;;;;;2.05;1.05;;;12.10;99.90;;;;;;5043230;28;20076;-82
2022/08/31 04:19:04;;;;;;;2.75;1.15;;;12.10;99.90;;;;;;4997287;28;20375;-84
2022/08/31 04:21:30;;;;;;;1.42;1.10;;;12.10;99.90;;;;;;4995839;28;20064;-86
2022/08/31 04:23:58;;;;;;;1.77;1.00;;;12.10;99.90;;;;;;5026274;28;20030;-84
2022/08/31 04:26:25;;;;;;;1.02;0.93;;;12.10;99.90;;;;;;4996371;28;20049;-83
2022/08/31 04:28:52;;;;;;;1.35;1.10;;;12.10;99.90;;;;;;5014182;28;20149;-85
2022/08/31 04:31:19;;;;;;;0.93;0.93;;;12.10;99.90;;;;;;4996233;28;20670;-85
2022/08/31 04:33:48;;;;;;;1.60;1.05;;;12.10;99.90;;;;;;5000605;28;20096;-84
2022/08/31 04:36:17;;;;;;;3.40;1.10;;;12.10;99.90;;;;;;5016928;28;20121;-85
2022/08/31 04:38:45;;;;;;;1.45;1.00;;;12.10;99.90;;;;;;5025066;28;20037;-85
2022/08/31 04:41:13;;;;;;;1.63;1.20;;;12.10;99.90;;;;;;5009092;28;20038;-85
2022/08/31 04:43:43;;;;;;;2.35;1.40;;;12.10;99.90;;;;;;4989590;28;20049;-85
2022/08/31 04:46:08;;;;;;;5.30;1.35;;;12.00;99.90;;;;;;5016754;28;20044;-86
2022/08/31 04:48:35;;;;;;;1.13;1.05;;;12.00;99.90;;;;;;4996836;28;20060;-83
2022/08/31 04:51:02;;;;;;;2.60;1.30;;;12.00;99.90;;;;;;5003229;28;20648;-86
2022/08/31 04:53:28;;;;;;;2.15;1.02;;;12.00;99.90;;;;;;5027643;28;20032;-82
2022/08/31 04:55:54;;;;;;;1.27;1.17;;;12.00;99.90;;;;;;5034494;28;20029;-81
2022/08/31 04:58:22;;;;;;;1.63;1.45;;;12.00;99.90;;;;;;5036208;28;20444;-85
2022/08/31 05:00:49;;;;;;;1.30;1.20;;;12.00;99.90;;;;;;4993988;28;20049;-85
2022/08/31 05:03:14;;;;;;;2.85;1.02;;;12.00;99.90;;;;;;4997829;28;20611;-85
2022/08/31 05:05:40;;;;;;;2.38;1.40;;;12.00;99.90;;;;;;5012702;28;20037;-86
2022/08/31 05:08:07;;;;;;;1.45;1.35;;;12.00;99.90;;;;;;5004142;28;20486;-86
2022/08/31 05:10:33;;;;;;;1.88;1.35;;;12.00;99.90;;;;;;5020450;28;20033;-85
2022/08/31 05:12:59;;;;;;;2.28;1.20;;;12.00;99.90;;;;;;5006160;28;20052;-85
2022/08/31 05:15:25;;;;;;;2.20;1.63;;;11.90;99.90;;;;;;5018007;28;20041;-86
2022/08/31 05:17:51;;;;;;;4.40;1.45;;;12.00;99.90;;;;;;5035885;28;20052;-85
2022/08/31 05:20:19;;;;;;;1.50;1.40;;;11.90;99.90;;;;;;4999863;28;20060;-86
2022/08/31 05:22:45;;;;;;;1.45;1.30;;;12.00;99.90;;;;;;5022926;28;20038;-84
2022/08/31 05:25:11;;;;;;;2.55;1.50;;;12.00;99.90;;;;;;5005147;28;20072;-84
2022/08/31 05:27:38;;;;;;;2.25;1.73;;;12.00;99.90;;;;;;5001823;28;20033;-85
2022/08/31 05:30:05;;;;;;;2.40;1.23;;;12.00;99.90;;;;;;5004508;28;20512;-85
2022/08/31 05:32:39;;;;;;;1.83;1.52;;;12.00;99.90;;;;;;5025057;28;20034;-85
2022/08/31 05:35:06;;;;;;;3.50;1.27;;;12.00;99.90;;;;;;5019368;28;20108;-86
2022/08/31 05:37:32;;;;;;;3.55;1.35;;;12.00;99.90;;;;;;5027662;28;20104;-86
2022/08/31 05:39:58;;;;;;;3.33;1.23;;;12.00;99.90;;;;;;5003075;28;20494;-85
2022/08/31 05:42:23;;;;;;;1.80;1.50;;;12.00;99.90;;;;;;5014558;28;20037;-85
2022/08/31 05:44:49;;;;;;;1.73;1.45;;;12.00;99.90;;;;;;5019765;28;20560;-85
2022/08/31 05:47:14;;;;;;;3.22;1.55;;;12.00;99.90;;;;;;4998658;28;20121;-85
2022/08/31 05:49:42;;;;;;;1.40;1.30;;;12.00;99.90;;;;;;5013910;28;20065;-84
2022/08/31 05:52:08;;;;;;;2.35;1.48;;;12.00;99.90;;;;;;5017304;28;20044;-84
2022/08/31 05:54:37;;;;;;;2.90;1.45;;;12.10;99.90;;;;;;5001972;28;20037;-85
2022/08/31 05:57:03;;;;;;;1.50;1.15;;;12.00;99.90;;;;;;4988935;28;20525;-85
2022/08/31 05:59:29;;;;;;;4.07;1.60;;;12.10;99.90;;;;;;5014827;28;20037;-85
2022/08/31 06:01:56;;;;;;;1.90;1.30;;;12.10;99.90;;;;;;4993528;28;20477;-85
2022/08/31 06:04:22;;;;;;;2.08;1.70;;;12.20;99.90;;;;;;5014324;28;20401;-86
2022/08/31 06:06:47;;;;;;;2.42;1.50;;;12.20;99.90;;;;;;4998748;28;20048;-86
2022/08/31 06:09:13;;;;;;;2.45;1.50;;;12.20;99.90;;;;;;5014583;28;20493;-86
2022/08/31 06:11:40;;;;;;;1.77;1.40;;;12.30;99.90;;;;;;4990727;28;20034;-86
2022/08/31 06:14:08;;;;;;;2.15;1.40;;;12.30;99.90;;;;;;4996097;28;20041;-86
2022/08/31 06:16:36;;;;;;;5.93;2.15;;;12.40;99.90;;;;;;5010989;28;20452;-86
2022/08/31 06:19:05;;;;;;;3.53;1.77;;;12.40;99.90;;;;;;5004852;28;20117;-87
2022/08/31 06:21:36;;;;;;;2.08;1.52;;;12.50;99.90;;;;;;4997169;28;20080;-87
2022/08/31 06:24:04;;;;;;;1.65;1.55;;;12.60;99.90;;;;;;5000038;28;20033;-87
2022/08/31 06:26:32;;;;;;;3.55;1.73;;;12.60;99.90;;;;;;5016114;28;20658;-85
2022/08/31 06:29:00;;;;;;;2.72;1.60;;;12.70;99.90;;;;;;5008664;28;20047;-86
2022/08/31 06:31:36;;;;;;;2.85;1.83;;;12.70;99.90;;;;;;5008392;28;20057;-86
2022/08/31 06:34:04;;;;;;;3.95;2.13;;;12.80;99.90;;;;;;4992765;28;20124;-86
2022/08/31 06:36:31;;;;;;;2.03;1.70;;;12.90;99.90;;;;;;4991525;28;20042;-85
2022/08/31 06:38:58;;;;;;;3.70;1.88;;;13.00;99.90;;;;;;5010228;28;20120;-86
2022/08/31 06:41:27;;;;;;;3.22;1.50;;;13.00;99.90;;;;;;4990910;28;20442;-85
2022/08/31 06:43:53;;;;;;;2.58;1.75;;;13.10;99.90;;;;;;5011946;28;20448;-86
2022/08/31 06:46:21;;;;;;;4.85;2.00;;;13.10;99.90;;;;;;4992291;28;20065;-86
2022/08/31 06:48:49;;;;;;;1.60;1.50;;;13.30;99.90;;;;;;5015519;28;20041;-86
2022/08/31 06:51:16;;;;;;;4.28;2.13;;;13.40;99.90;;;;;;4990019;28;20037;-86
2022/08/31 06:53:41;;;;;;;1.58;1.48;;;13.40;99.90;;;;;;4994609;28;20402;-85
2022/08/31 06:56:16;;;;;;;3.40;2.25;;;13.50;99.90;;;;;;5006920;28;20037;-86
2022/08/31 06:58:42;;;;;;;2.63;1.63;;;13.60;99.90;;;;;;5002538;28;20034;-85
2022/08/31 07:01:14;;;;;;;1.98;1.58;;;13.60;99.90;;;;;;4992029;28;20048;-87
2022/08/31 07:03:42;;;;;;;2.60;1.70;;;13.70;99.90;;;;;;4988203;28;20091;-84
2022/08/31 07:06:19;;;;;;;2.95;1.60;;;13.70;99.90;;;;;;5014707;28;20045;-86
2022/08/31 07:08:46;;;;;;;2.67;1.80;;;13.80;99.90;;;;;;4990548;28;20049;-85
2022/08/31 07:11:14;;;;;;;3.88;1.65;;;13.90;99.90;;;;;;5018386;28;20033;-86
2022/08/31 07:13:41;;;;;;;3.05;1.65;;;14.00;99.90;;;;;;4997465;28;20130;-84
2022/08/31 07:16:11;;;;;;;1.85;1.60;;;14.00;99.90;;;;;;4993179;28;20034;-88
2022/08/31 07:18:37;;;;;;;2.72;1.67;;;14.10;99.90;;;;;;5014518;28;20034;-87
2022/08/31 07:21:12;;;;;;;3.00;1.83;;;14.20;99.90;;;;;;5011988;28;20084;-89
2022/08/31 07:23:38;;;;;;;2.60;1.77;;;14.30;99.90;;;;;;5004740;28;20038;-88
2022/08/31 07:26:09;;;;;;;3.17;1.92;;;14.40;99.90;;;;;;4991242;28;20038;-90
2022/08/31 07:28:37;;;;;;;2.35;2.00;;;14.40;99.90;;;;;;5011971;28;20049;-92
2022/08/31 07:31:04;;;;;;;2.28;1.55;;;14.60;99.90;;;;;;5018026;28;20052;-90
2022/08/31 07:33:40;;;;;;;4.05;2.13;;;14.70;99.90;;;;;;5003421;28;20057;-89
2022/08/31 07:36:07;;;;;;;3.05;1.63;;;14.80;99.90;;;;;;4985792;28;20045;-90
2022/08/31 07:44:11;;;;;;;3.22;1.70;;;15.30;99.90;;;;;;5030135;28;20733;-91
2022/08/31 07:46:38;;;;;;;1.90;1.60;;;15.50;99.90;;;;;;5006511;28;20029;-86
2022/08/31 07:49:11;;;;;;;2.85;1.50;;;15.70;99.90;;;;;;5023090;28;20037;-87
2022/08/31 07:51:49;;;;;;;2.25;1.70;;;16.00;99.90;;;;;;5005186;28;20042;-87
2022/08/31 07:54:19;;;;;;;2.03;1.42;;;16.30;99.90;;;;;;5004174;28;20063;-85
2022/08/31 07:56:51;;;;;;;4.25;1.48;;;16.60;99.90;;;;;;5002216;28;20037;-88
2022/08/31 08:00:19;;;;;;;;;;;;;;;;;;;;;
2022/08/31 08:06:47;;;;;;;2.35;1.17;;;17.40;99.90;;;;;;4923501;29;20053;-89
2022/08/31 08:09:13;;;;;;;1.23;1.00;;;17.70;99.90;;;;;;4923334;29;20047;-81
2022/08/31 08:11:44;;;;;;;3.33;0.90;;;17.90;99.90;;;;;;4927934;28;20049;-82
2022/08/31 08:14:10;;;;;;;2.22;1.17;;;18.00;99.90;;;;;;5032426;28;20056;-82
2022/08/31 08:16:37;;;;;;;3.03;0.95;;;18.10;99.90;;;;;;5013308;28;20042;-82
2022/08/31 08:19:03;;;;;;;2.75;1.30;;;18.30;99.90;;;;;;5026439;28;20114;-82
2022/08/31 08:21:29;;;;;;;2.92;1.00;;;18.50;99.90;;;;;;5025206;28;20159;-80
2022/08/31 08:24:09;;;;;;;3.42;1.10;;;18.70;99.90;;;;;;5012472;28;20052;-88
2022/08/31 08:26:46;;;;;;;1.42;1.05;;;18.80;99.90;;;;;;5012121;28;20041;-88
2022/08/31 08:29:23;;;;;;;2.97;1.15;;;18.90;99.90;;;;;;5008777;28;20071;-88
2022/08/31 08:31:56;;;;;;;3.08;0.98;;;19.00;99.90;;;;;;5029819;28;20068;-88
2022/08/31 08:34:23;;;;;;;2.47;1.27;;;18.90;99.90;;;;;;5037542;28;20116;-88
2022/08/31 08:36:49;;;;;;;2.90;1.00;;;19.20;99.90;;;;;;5021134;28;20033;-89
2022/08/31 08:39:17;;;;;;;2.25;1.00;;;19.30;99.90;;;;;;5001292;28;20037;-89
2022/08/31 08:41:45;;;;;;;2.10;0.82;;;19.60;99.90;;;;;;4993272;28;20041;-89
2022/08/31 08:44:14;;;;;;;1.42;1.02;;;19.80;99.90;;;;;;5020004;28;20505;-89
2022/08/31 08:46:59;;;;;;;2.88;0.93;;;20.10;99.90;;;;;;4998130;28;20037;-90
2022/08/31 08:49:27;;;;;;;1.13;0.80;;;20.40;99.10;;;;;;5028372;28;20037;-87
2022/08/31 08:52:42;;;;;;;2.78;1.05;;;20.80;99.90;;;;;;5014919;28;20060;-87
2022/08/31 08:55:29;;;;;;;1.25;0.93;;;21.00;92.50;;;;;;4946125;29;20039;-88
2022/08/31 08:57:55;;;;;;;1.95;0.93;;;21.30;94.30;;;;;;5013719;28;20044;-87
2022/08/31 09:00:24;;;;;;;2.28;1.00;;;21.40;96.80;;;;;;5021496;28;20037;-84
2022/08/31 09:03:11;;;;;;;6.35;1.33;;;21.50;94.20;;;;;;5046140;28;20091;-87
2022/08/31 09:06:00;;;;;;;2.00;0.75;;;21.70;92.70;;;;;;5005009;28;20557;-87
2022/08/31 09:08:45;;;;;;;1.40;0.70;;;22.10;81.40;;;;;;5029439;28;20101;-86
2022/08/31 09:11:45;;;;;;;1.13;0.60;;;22.20;91.60;;;;;;5010329;28;20068;-86
2022/08/31 09:18:15;;;;;;;2.65;0.82;;;22.50;72.70;;;;;;4992947;28;20046;-32
2022/08/31 09:24:37;;;;;;;2.22;0.90;;;22.60;66.70;;;;;;4942332;23;20084;-80
2022/08/31 09:27:17;;;;;;;1.23;0.88;;;22.60;77.80;;;;;;5040964;28;20025;-80
2022/08/31 09:29:57;;;;;;;1.92;0.80;;;22.80;65.60;;;;;;5042676;28;20382;-81
2022/08/31 09:32:33;;;;;;;1.10;0.82;;;22.80;66.00;;;;;;5041461;28;20112;-80
2022/08/31 09:35:04;;;;;;;1.55;0.75;;;22.90;66.80;;;;;;5022122;28;20464;-80
2022/08/31 09:37:32;;;;;;;2.88;0.70;;;23.10;66.10;;;;;;5025606;28;20030;-82
2022/08/31 09:40:35;;;;;;;2.05;0.85;;;23.20;64.20;;;;;;5007781;28;20093;-80
2022/08/31 09:43:25;;;;;;;3.55;0.90;;;23.50;62.10;;;;;;4993939;28;20041;-81
2022/08/31 09:46:05;;;;;;;3.83;0.82;;;23.60;63.20;;;;;;5020931;28;20038;-80
2022/08/31 09:48:55;;;;;;;4.13;1.10;;;23.80;61.40;;;;;;5029750;28;20037;-80
2022/08/31 09:51:28;;;;;;;1.23;0.80;;;24.00;58.70;;;;;;5007657;28;20029;-80
2022/08/31 09:56:56;;;;;;;2.58;0.70;;;24.10;57.90;;;;;;5035407;28;20104;-80
2022/08/31 09:59:50;;;;;;;3.25;0.65;;;24.00;57.90;;;;;;5036995;28;20084;-79
2022/08/31 10:02:25;;;;;;;1.20;0.90;;;24.20;54.30;;;;;;5032627;28;20053;-78
2022/08/31 10:05:00;;;;;;;2.35;0.77;;;24.40;58.70;;;;;;5037511;28;20042;-80
2022/08/31 10:07:42;;;;;;;1.90;0.60;;;24.70;57.10;;;;;;5037478;28;20049;-81
2022/08/31 10:10:29;;;;;;;1.00;0.70;;;24.90;56.50;;;;;;5013348;28;20038;-81
2022/08/31 10:13:17;;;;;;;1.63;0.77;;;24.90;55.30;;;;;;4999392;28;20042;-79
2022/08/31 10:16:00;;;;;;;1.25;0.80;;;25.00;55.50;;;;;;4998365;28;20505;-91
2022/08/31 10:18:38;;;;;;;3.53;0.90;;;24.90;51.70;;;;;;5009023;28;20076;-88
2022/08/31 10:21:19;;;;;;;12.05;1.48;;;24.80;51.90;;;;;;4989502;28;20045;-89
2022/08/31 10:24:19;;;;;;;2.50;0.98;;;25.00;53.70;;;;;;4988644;28;20053;-89
2022/08/31 10:26:52;;;;;;;2.42;0.68;;;25.10;53.70;;;;;;4992367;28;20050;-88
2022/08/31 10:29:30;;;;;;;1.85;0.88;;;25.20;53.60;;;;;;5002919;28;20041;-88
2022/08/31 10:32:00;;;;;;;2.42;0.82;;;25.30;53.40;;;;;;4996200;28;20124;-89
2022/08/31 10:37:38;;;;;;;0.60;0.50;;;25.80;52.70;;;;;;5001670;28;20417;-89
2022/08/31 10:40:21;;;;;;;2.30;0.77;;;26.10;51.60;;;;;;5014489;28;20041;-88
2022/08/31 10:43:08;;;;;;;2.30;0.93;;;26.30;50.10;;;;;;4986115;28;20041;-88
2022/08/31 10:45:39;;;;;;;2.38;0.73;;;26.30;49.30;;;;;;5002646;28;20041;-87
2022/08/31 10:48:05;;;;;;;1.02;0.70;;;26.40;50.90;;;;;;5004664;28;20026;-87
2022/08/31 10:50:38;;;;;;;3.17;1.10;;;26.20;49.80;;;;;;5016096;28;20124;-88
2022/08/31 10:53:32;;;;;;;2.75;0.80;;;26.20;49.30;;;;;;5006922;28;20064;-88
2022/08/31 10:56:24;;;;;;;2.78;0.70;;;26.10;47.40;;;;;;4988739;28;20064;-88
2022/08/31 10:59:27;;;;;;;3.50;0.60;;;26.20;47.10;;;;;;5010686;28;20098;-90
2022/08/31 11:02:11;;;;;;;0.98;0.77;;;26.40;48.10;;;;;;4987813;28;20034;-89
2022/08/31 11:05:00;;;;;;;1.85;0.60;;;26.50;48.20;;;;;;4987860;28;20048;-89
2022/08/31 11:07:45;;;;;;;1.88;0.88;;;26.70;47.60;;;;;;4984313;28;20619;-90
2022/08/31 11:10:32;;;;;;;2.30;0.93;;;26.80;47.10;;;;;;4995468;28;20065;-89
2022/08/31 11:13:04;;;;;;;2.00;0.85;;;27.30;47.60;;;;;;4997088;28;20041;-88
2022/08/31 11:15:48;;;;;;;1.53;0.87;;;27.30;46.60;;;;;;4998538;28;20072;-90
2022/08/31 11:18:39;;;;;;;2.72;0.85;;;27.10;44.00;;;;;;4995776;28;20034;-89
2022/08/31 11:21:16;;;;;;;1.63;0.90;;;27.40;45.90;;;;;;4958656;28;20061;-83
2022/08/31 11:24:10;;;;;;;1.27;0.85;;;27.40;45.40;;;;;;5006862;28;20065;-80
2022/08/31 11:26:45;;;;;;;1.40;0.70;;;27.60;44.70;;;;;;5024703;28;20040;-81
2022/08/31 11:29:33;;;;;;;2.63;0.90;;;27.90;45.40;;;;;;5005815;28;20116;-82
2022/08/31 11:32:07;;;;;;;3.15;0.77;;;28.10;45.60;;;;;;5005659;28;20041;-80
2022/08/31 11:34:50;;;;;;;1.17;0.60;;;28.40;42.10;;;;;;5019710;28;20057;-80
2022/08/31 11:37:49;;;;;;;1.30;0.70;;;28.40;42.40;;;;;;5022086;28;20041;-79
2022/08/31 11:40:42;;;;;;;3.70;0.90;;;27.90;40.50;;;;;;5013555;28;20111;-81
2022/08/31 11:43:13;;;;;;;2.10;0.82;;;28.00;42.50;;;;;;5005479;28;20049;-81
2022/08/31 11:45:40;;;;;;;1.60;0.82;;;27.90;43.80;;;;;;5010752;28;20132;-80
2022/08/31 11:48:11;;;;;;;2.25;1.27;;;27.70;43.90;;;;;;4995227;28;20045;-80
2022/08/31 11:50:55;;;;;;;17.27;1.90;;;28.10;44.40;;;;;;5014606;28;20803;-79
2022/08/31 11:53:38;;;;;;;7.63;1.20;;;28.50;44.00;;;;;;5025579;28;20103;-82
2022/08/31 11:56:05;;;;;;;0.95;0.80;;;29.20;44.90;;;;;;5011109;28;20040;-80
2022/08/31 11:58:38;;;;;;;0.85;0.60;;;29.40;43.40;;;;;;5029399;28;20028;-80
2022/08/31 12:01:10;;;;;;;1.10;0.70;;;29.40;41.40;;;;;;5012713;28;20043;-79
2022/08/31 12:03:50;;;;;;;1.73;0.73;;;29.30;40.60;;;;;;5004322;28;20053;-79
2022/08/31 12:06:25;;;;;;;2.15;0.60;;;29.50;41.40;;;;;;5016941;28;20029;-81
2022/08/31 12:09:13;;;;;;;2.70;1.00;;;29.90;41.40;;;;;;5013874;28;20093;-79
2022/08/31 12:12:09;;;;;;;3.25;0.90;;;30.30;42.10;;;;;;5040942;28;20116;-78
2022/08/31 12:14:50;;;;;;;2.83;0.77;;;30.30;39.70;;;;;;5017305;28;20079;-79
2022/08/31 12:17:21;;;;;;;2.10;0.75;;;30.90;40.10;;;;;;4997355;28;20033;-79
2022/08/31 12:19:59;;;;;;;2.05;0.68;;;31.30;39.30;;;;;;5016281;28;20109;-80
2022/08/31 12:26:35;;;;;;;1.17;0.63;;;31.00;38.50;;;;;;5029669;28;20041;-80
2022/08/31 12:29:24;;;;;;;2.58;1.35;;;31.00;35.70;;;;;;5032586;28;20526;-81
2022/08/31 12:32:13;;;;;;;1.35;0.60;;;31.30;37.20;;;;;;5033281;28;20153;-80
2022/08/31 12:34:49;;;;;;;1.27;0.77;;;31.00;36.10;;;;;;5014480;28;20093;-81
2022/08/31 12:37:22;;;;;;;2.45;0.80;;;30.80;36.70;;;;;;5015174;28;20072;-80
2022/08/31 12:39:48;;;;;;;3.33;0.82;;;31.10;38.10;;;;;;5030852;28;20033;-80
2022/08/31 12:42:18;;;;;;;0.75;0.68;;;31.30;38.20;;;;;;5011810;28;20061;-81
2022/08/31 12:44:50;;;;;;;2.75;0.70;;;31.40;36.70;;;;;;4996282;28;20029;-81
2022/08/31 12:47:16;;;;;;;1.80;0.80;;;31.50;36.30;;;;;;4995758;28;20088;-81
2022/08/31 12:49:54;;;;;;;1.80;0.73;;;31.50;36.30;;;;;;5029816;28;20042;-81
2022/08/31 12:52:34;;;;;;;1.27;0.70;;;32.00;36.80;;;;;;5014844;28;20049;-80
2022/08/31 12:55:36;;;;;;;2.15;0.70;;;31.90;35.50;;;;;;5015301;28;20098;-81
2022/08/31 12:58:23;;;;;;;2.97;0.65;;;31.80;34.90;;;;;;4992839;28;20046;-82
2022/08/31 13:00:49;;;;;;;1.77;0.73;;;31.60;34.70;;;;;;5009841;28;20049;-81
2022/08/31 13:03:22;;;;;;;2.35;0.55;;;31.80;35.50;;;;;;5027296;28;20667;-81
2022/08/31 13:06:12;;;;;;;1.83;0.60;;;32.20;35.30;;;;;;5022040;28;20044;-81
2022/08/31 13:08:53;;;;;;;2.00;0.73;;;32.70;35.40;;;;;;5014052;28;21721;-79
2022/08/31 13:11:25;;;;;;;1.60;0.55;;;32.70;34.60;;;;;;4997400;28;20148;-81
2022/08/31 13:14:10;;;;;;;1.60;0.70;;;32.60;34.60;;;;;;5024279;28;20045;-80
2022/08/31 13:16:49;;;;;;;1.40;0.65;;;32.80;35.60;;;;;;5010752;28;20054;-80
2022/08/31 13:19:26;;;;;;;2.22;0.82;;;33.10;35.70;;;;;;5026499;28;20093;-81
2022/08/31 13:21:54;;;;;;;0.60;0.47;;;33.50;34.00;;;;;;5005958;28;20120;-82
2022/08/31 13:24:27;;;;;;;1.42;0.90;;;33.70;34.00;;;;;;4992013;28;20038;-81
2022/08/31 13:27:24;;;;;;;2.05;0.70;;;33.60;32.90;;;;;;5039251;28;20538;-78
2022/08/31 13:29:52;;;;;;;2.60;0.70;;;33.40;32.80;;;;;;4992147;28;20077;-81
2022/08/31 13:32:31;;;;;;;1.60;0.60;;;33.40;33.50;;;;;;5014288;28;20041;-81
2022/08/31 13:35:02;;;;;;;1.08;0.77;;;33.50;33.50;;;;;;5031031;28;20071;-78
2022/08/31 13:37:33;;;;;;;3.13;0.70;;;33.60;34.20;;;;;;5031544;28;20037;-79
2022/08/31 13:40:10;;;;;;;1.02;0.80;;;33.80;33.30;;;;;;5007835;28;20102;-79
2022/08/31 13:42:44;;;;;;;1.90;0.70;;;34.00;32.40;;;;;;5042606;28;20045;-80
2022/08/31 13:45:25;;;;;;;2.20;0.57;;;33.90;32.90;;;;;;5047036;28;20049;-80